sensor_id;sensor_type;location;lat;lon;timestamp;pressure;altitude;pressure_sealevel;temperature;humidity
71485;BME280;59300;52.074;4.758;2023-01-26T00:02:43;102586.91;;;-1.12;100.00
71485;BME280;59300;52.074;4.758;2023-01-26T00:05:45;102571.00;;;-1.20;100.00
71485;BME280;59300;52.074;4.758;2023-01-26T00:08:49;102573.78;;;-1.15;100.00
71485;BME280;59300;52.074;4.758;2023-01-26T00:11:51;102572.22;;;-1.12;100.00
71485;BME280;59300;52.074;4.758;2023-01-26T00:14:53;102572.16;;;-1.13;100.00
71485;BME280;59300;52.074;4.758;2023-01-26T00:17:55;102567.81;;;-1.14;100.00
71485;BME280;59300;52.074;4.758;2023-01-26T00:20:59;102559.06;;;-1.16;100.00
71485;BME280;59300;52.074;4.758;2023-01-26T00:24:01;102555.66;;;-1.15;100.00
71485;BME280;59300;52.074;4.758;2023-01-26T00:27:03;102564.69;;;-1.07;100.00
71485;BME280;59300;52.074;4.758;2023-01-26T00:30:05;102564.56;;;-1.10;100.00
71485;BME280;59300;52.074;4.758;2023-01-26T00:33:07;102564.56;;;-1.10;100.00
71485;BME280;59300;52.074;4.758;2023-01-26T00:36:09;102559.22;;;-1.13;100.00
71485;BME280;59300;52.074;4.758;2023-01-26T00:39:11;102553.28;;;-1.11;100.00
71485;BME280;59300;52.074;4.758;2023-01-26T00:42:13;102546.31;;;-1.12;100.00
71485;BME280;59300;52.074;4.758;2023-01-26T00:45:15;102546.91;;;-1.17;100.00
71485;BME280;59300;52.074;4.758;2023-01-26T00:48:18;102544.47;;;-1.14;100.00
71485;BME280;59300;52.074;4.758;2023-01-26T00:51:20;102534.06;;;-1.16;100.00
71485;BME280;59300;52.074;4.758;2023-01-26T00:54:22;102534.13;;;-1.14;100.00
71485;BME280;59300;52.074;4.758;2023-01-26T00:57:24;102531.69;;;-1.11;100.00
71485;BME280;59300;52.074;4.758;2023-01-26T01:00:26;102525.53;;;-1.13;100.00
71485;BME280;59300;52.074;4.758;2023-01-26T01:03:28;102521.16;;;-1.14;100.00
71485;BME280;59300;52.074;4.758;2023-01-26T01:06:30;102529.91;;;-1.12;100.00
71485;BME280;59300;52.074;4.758;2023-01-26T01:09:32;102518.50;;;-1.16;100.00
71485;BME280;59300;52.074;4.758;2023-01-26T01:12:34;102524.78;;;-1.11;100.00
71485;BME280;59300;52.074;4.758;2023-01-26T01:15:37;102516.72;;;-1.17;100.00
71485;BME280;59300;52.074;4.758;2023-01-26T01:18:52;102515.03;;;-1.16;100.00
71485;BME280;59300;52.074;4.758;2023-01-26T01:21:53;102516.28;;;-1.08;100.00
71485;BME280;59300;52.074;4.758;2023-01-26T01:24:55;102511.09;;;-1.08;100.00
71485;BME280;59300;52.074;4.758;2023-01-26T01:27:57;102509.19;;;-1.12;100.00
71485;BME280;59300;52.074;4.758;2023-01-26T01:31:03;102510.03;;;-1.12;100.00
71485;BME280;59300;52.074;4.758;2023-01-26T01:34:05;102519.00;;;-1.05;100.00
71485;BME280;59300;52.074;4.758;2023-01-26T01:37:07;102514.63;;;-1.06;100.00
71485;BME280;59300;52.074;4.758;2023-01-26T01:40:11;102523.22;;;-1.07;100.00
71485;BME280;59300;52.074;4.758;2023-01-26T01:43:14;102510.25;;;-1.07;100.00
71485;BME280;59300;52.074;4.758;2023-01-26T01:46:33;102525.00;;;-1.06;100.00
71485;BME280;59300;52.074;4.758;2023-01-26T01:49:47;102514.56;;;-1.08;100.00
71485;BME280;59300;52.074;4.758;2023-01-26T01:52:53;102512.84;;;-1.07;100.00
71485;BME280;59300;52.074;4.758;2023-01-26T01:55:57;102523.38;;;-1.04;100.00
71485;BME280;59300;52.074;4.758;2023-01-26T01:59:02;102518.94;;;-1.06;100.00
71485;BME280;59300;52.074;4.758;2023-01-26T02:02:05;102522.66;;;-1.01;100.00
71485;BME280;59300;52.074;4.758;2023-01-26T02:05:13;102511.22;;;-1.05;100.00
71485;BME280;59300;52.074;4.758;2023-01-26T02:08:23;102515.81;;;-0.99;100.00
71485;BME280;59300;52.074;4.758;2023-01-26T02:11:31;102517.38;;;-1.03;100.00
71485;BME280;59300;52.074;4.758;2023-01-26T02:14:35;102513.16;;;-1.01;100.00
71485;BME280;59300;52.074;4.758;2023-01-26T02:17:38;102515.81;;;-0.99;100.00
71485;BME280;59300;52.074;4.758;2023-01-26T02:20:44;102512.19;;;-1.03;100.00
71485;BME280;59300;52.074;4.758;2023-01-26T02:24:03;102518.63;;;-0.95;100.00
71485;BME280;59300;52.074;4.758;2023-01-26T02:27:08;102508.13;;;-0.98;100.00
71485;BME280;59300;52.074;4.758;2023-01-26T02:30:12;102506.56;;;-0.94;100.00
71485;BME280;59300;52.074;4.758;2023-01-26T02:33:20;102504.84;;;-0.94;100.00
71485;BME280;59300;52.074;4.758;2023-01-26T02:36:29;102511.78;;;-0.93;100.00
71485;BME280;59300;52.074;4.758;2023-01-26T02:42:53;102519.06;;;-0.85;100.00
71485;BME280;59300;52.074;4.758;2023-01-26T02:45:55;102512.09;;;-0.86;100.00
71485;BME280;59300;52.074;4.758;2023-01-26T02:48:57;102508.38;;;-0.91;100.00
71485;BME280;59300;52.074;4.758;2023-01-26T02:51:59;102513.72;;;-0.88;100.00
71485;BME280;59300;52.074;4.758;2023-01-26T02:55:01;102510.31;;;-0.87;100.00
71485;BME280;59300;52.074;4.758;2023-01-26T02:58:03;102521.84;;;-0.81;100.00
71485;BME280;59300;52.074;4.758;2023-01-26T03:01:07;102522.72;;;-0.80;100.00
71485;BME280;59300;52.074;4.758;2023-01-26T03:04:20;102522.63;;;-0.83;100.00
71485;BME280;59300;52.074;4.758;2023-01-26T03:07:22;102526.28;;;-0.78;100.00
71485;BME280;59300;52.074;4.758;2023-01-26T03:10:25;102522.66;;;-0.82;100.00
71485;BME280;59300;52.074;4.758;2023-01-26T03:13:26;102516.47;;;-0.85;100.00
71485;BME280;59300;52.074;4.758;2023-01-26T03:16:32;102533.09;;;-0.80;100.00
71485;BME280;59300;52.074;4.758;2023-01-26T03:19:34;102519.06;;;-0.85;100.00
71485;BME280;59300;52.074;4.758;2023-01-26T03:22:41;102521.81;;;-0.82;100.00
71485;BME280;59300;52.074;4.758;2023-01-26T03:25:43;102515.72;;;-0.83;100.00
71485;BME280;59300;52.074;4.758;2023-01-26T03:28:45;102511.50;;;-0.81;100.00
71485;BME280;59300;52.074;4.758;2023-01-26T03:31:47;102514.13;;;-0.79;100.00
71485;BME280;59300;52.074;4.758;2023-01-26T03:34:49;102517.53;;;-0.80;100.00
71485;BME280;59300;52.074;4.758;2023-01-26T03:37:52;102522.06;;;-0.76;100.00
71485;BME280;59300;52.074;4.758;2023-01-26T03:41:03;102523.03;;;-0.74;100.00
71485;BME280;59300;52.074;4.758;2023-01-26T03:44:06;102522.28;;;-0.71;100.00
71485;BME280;59300;52.074;4.758;2023-01-26T03:47:07;102521.41;;;-0.72;100.00
71485;BME280;59300;52.074;4.758;2023-01-26T03:50:12;102518.84;;;-0.70;100.00
71485;BME280;59300;52.074;4.758;2023-01-26T03:53:22;102512.81;;;-0.71;100.00
71485;BME280;59300;52.074;4.758;2023-01-26T03:56:24;102518.19;;;-0.66;100.00
71485;BME280;59300;52.074;4.758;2023-01-26T03:59:29;102515.50;;;-0.68;100.00
71485;BME280;59300;52.074;4.758;2023-01-26T04:02:31;102509.50;;;-0.67;100.00
71485;BME280;59300;52.074;4.758;2023-01-26T04:05:34;102510.47;;;-0.65;100.00
71485;BME280;59300;52.074;4.758;2023-01-26T04:08:37;102509.66;;;-0.64;100.00
71485;BME280;59300;52.074;4.758;2023-01-26T04:11:39;102520.19;;;-0.60;100.00
71485;BME280;59300;52.074;4.758;2023-01-26T04:14:40;102509.66;;;-0.64;100.00
71485;BME280;59300;52.074;4.758;2023-01-26T04:17:53;102523.59;;;-0.62;100.00
71485;BME280;59300;52.074;4.758;2023-01-26T04:20:55;102517.63;;;-0.59;100.00
71485;BME280;59300;52.074;4.758;2023-01-26T04:23:57;102515.94;;;-0.58;100.00
71485;BME280;59300;52.074;4.758;2023-01-26T04:26:58;102517.72;;;-0.57;100.00
71485;BME280;59300;52.074;4.758;2023-01-26T04:30:08;102519.56;;;-0.55;100.00
71485;BME280;59300;52.074;4.758;2023-01-26T04:33:11;102528.41;;;-0.50;100.00
71485;BME280;59300;52.074;4.758;2023-01-26T04:36:13;102511.78;;;-0.55;100.00
71485;BME280;59300;52.074;4.758;2023-01-26T04:39:19;102520.59;;;-0.51;100.00
71485;BME280;59300;52.074;4.758;2023-01-26T04:42:25;102520.44;;;-0.54;100.00
71485;BME280;59300;52.074;4.758;2023-01-26T04:45:28;102523.31;;;-0.48;100.00
71485;BME280;59300;52.074;4.758;2023-01-26T04:48:31;102519.97;;;-0.45;100.00
71485;BME280;59300;52.074;4.758;2023-01-26T04:51:33;102520.88;;;-0.45;100.00
71485;BME280;59300;52.074;4.758;2023-01-26T04:54:35;102514.00;;;-0.43;100.00
71485;BME280;59300;52.074;4.758;2023-01-26T04:57:37;102506.19;;;-0.44;100.00
71485;BME280;59300;52.074;4.758;2023-01-26T05:00:39;102494.78;;;-0.48;100.00
71485;BME280;59300;52.074;4.758;2023-01-26T05:03:41;102503.53;;;-0.46;100.00
71485;BME280;59300;52.074;4.758;2023-01-26T05:06:44;102508.00;;;-0.42;100.00
71485;BME280;59300;52.074;4.758;2023-01-26T05:09:49;102517.72;;;-0.38;100.00
71485;BME280;59300;52.074;4.758;2023-01-26T05:13:17;102523.91;;;-0.34;100.00
71485;BME280;59300;52.074;4.758;2023-01-26T05:16:38;102519.63;;;-0.34;100.00
71485;BME280;59300;52.074;4.758;2023-01-26T05:19:59;102510.91;;;-0.36;100.00
71485;BME280;59300;52.074;4.758;2023-01-26T05:23:04;102517.91;;;-0.33;100.00
71485;BME280;59300;52.074;4.758;2023-01-26T05:26:06;102512.88;;;-0.30;100.00
71485;BME280;59300;52.074;4.758;2023-01-26T05:29:31;102505.13;;;-0.28;100.00
71485;BME280;59300;52.074;4.758;2023-01-26T05:32:34;102512.25;;;-0.24;100.00
71485;BME280;59300;52.074;4.758;2023-01-26T05:35:36;102516.66;;;-0.22;100.00
71485;BME280;59300;52.074;4.758;2023-01-26T05:38:41;102510.66;;;-0.21;100.00
71485;BME280;59300;52.074;4.758;2023-01-26T05:41:43;102519.41;;;-0.19;100.00
71485;BME280;59300;52.074;4.758;2023-01-26T05:44:51;102527.53;;;-0.11;100.00
71485;BME280;59300;52.074;4.758;2023-01-26T05:47:54;102527.59;;;-0.09;100.00
71485;BME280;59300;52.074;4.758;2023-01-26T05:50:56;102526.91;;;-0.05;100.00
71485;BME280;59300;52.074;4.758;2023-01-26T05:53:59;102517.41;;;-0.05;100.00
71485;BME280;59300;52.074;4.758;2023-01-26T05:57:01;102525.41;;;0.00;100.00
71485;BME280;59300;52.074;4.758;2023-01-26T06:00:04;102524.56;;;0.01;100.00
71485;BME280;59300;52.074;4.758;2023-01-26T06:03:14;102531.66;;;0.05;100.00
71485;BME280;59300;52.074;4.758;2023-01-26T06:06:16;102523.88;;;0.05;100.00
71485;BME280;59300;52.074;4.758;2023-01-26T06:09:25;102530.34;;;0.15;100.00
71485;BME280;59300;52.074;4.758;2023-01-26T06:12:51;102525.94;;;0.12;100.00
71485;BME280;59300;52.074;4.758;2023-01-26T06:16:09;102535.72;;;0.20;100.00
71485;BME280;59300;52.074;4.758;2023-01-26T06:19:12;102534.84;;;0.19;100.00
71485;BME280;59300;52.074;4.758;2023-01-26T06:22:15;102530.34;;;0.15;100.00
71485;BME280;59300;52.074;4.758;2023-01-26T06:25:22;102530.59;;;0.21;100.00
71485;BME280;59300;52.074;4.758;2023-01-26T06:28:24;102524.53;;;0.21;100.00
71485;BME280;59300;52.074;4.758;2023-01-26T06:31:25;102533.47;;;0.27;100.00
71485;BME280;59300;52.074;4.758;2023-01-26T06:34:27;102542.31;;;0.33;100.00
71485;BME280;59300;52.074;4.758;2023-01-26T06:37:29;102542.63;;;0.40;100.00
71485;BME280;59300;52.074;4.758;2023-01-26T06:40:31;102544.69;;;0.48;100.00
71485;BME280;59300;52.074;4.758;2023-01-26T06:43:34;102549.38;;;0.56;100.00
71485;BME280;59300;52.074;4.758;2023-01-26T06:46:40;102547.69;;;0.58;100.00
71485;BME280;59300;52.074;4.758;2023-01-26T06:49:42;102561.66;;;0.60;100.00
71485;BME280;59300;52.074;4.758;2023-01-26T06:52:50;102552.97;;;0.60;100.00
71485;BME280;59300;52.074;4.758;2023-01-26T06:56:08;102560.13;;;0.66;100.00
71485;BME280;59300;52.074;4.758;2023-01-26T06:59:28;102563.56;;;0.65;100.00
71485;BME280;59300;52.074;4.758;2023-01-26T07:03:00;102563.69;;;0.68;100.00
71485;BME280;59300;52.074;4.758;2023-01-26T07:06:01;102574.13;;;0.69;100.00
71485;BME280;59300;52.074;4.758;2023-01-26T07:09:03;102571.16;;;0.81;100.00
71485;BME280;59300;52.074;4.758;2023-01-26T07:12:05;102566.06;;;0.84;100.00
71485;BME280;59300;52.074;4.758;2023-01-26T07:15:08;102578.03;;;1.02;100.00
71485;BME280;59300;52.074;4.758;2023-01-26T07:18:10;102570.94;;;1.20;100.00
71485;BME280;59300;52.074;4.758;2023-01-26T07:21:14;102573.06;;;1.31;100.00
71485;BME280;59300;52.074;4.758;2023-01-26T07:24:16;102582.19;;;1.42;100.00
71485;BME280;59300;52.074;4.758;2023-01-26T07:27:18;102589.50;;;1.52;100.00
71485;BME280;59300;52.074;4.758;2023-01-26T07:30:19;102598.47;;;1.61;100.00
71485;BME280;59300;52.074;4.758;2023-01-26T07:33:21;102587.41;;;1.66;100.00
71485;BME280;59300;52.074;4.758;2023-01-26T07:36:23;102591.03;;;1.70;100.00
71485;BME280;59300;52.074;4.758;2023-01-26T07:39:25;102592.19;;;1.78;100.00
71485;BME280;59300;52.074;4.758;2023-01-26T07:42:26;102603.03;;;1.91;100.00
71485;BME280;59300;52.074;4.758;2023-01-26T07:45:37;102610.97;;;1.94;100.00
71485;BME280;59300;52.074;4.758;2023-01-26T07:48:38;102612.31;;;2.08;100.00
71485;BME280;59300;52.074;4.758;2023-01-26T07:51:40;102608.69;;;2.03;100.00
71485;BME280;59300;52.074;4.758;2023-01-26T07:54:42;102617.31;;;2.02;100.00
71485;BME280;59300;52.074;4.758;2023-01-26T07:57:43;102617.66;;;2.11;100.00
71485;BME280;59300;52.074;4.758;2023-01-26T08:00:45;102622.31;;;2.20;100.00
71485;BME280;59300;52.074;4.758;2023-01-26T08:03:49;102627.78;;;2.28;100.00
71485;BME280;59300;52.074;4.758;2023-01-26T08:06:51;102633.16;;;2.33;100.00
71485;BME280;59300;52.074;4.758;2023-01-26T08:09:53;102622.97;;;2.39;100.00
71485;BME280;59300;52.074;4.758;2023-01-26T08:12:55;102638.13;;;2.51;100.00
71485;BME280;59300;52.074;4.758;2023-01-26T08:16:04;102624.06;;;2.45;100.00
71485;BME280;59300;52.074;4.758;2023-01-26T08:19:06;102628.25;;;2.42;100.00
71485;BME280;59300;52.074;4.758;2023-01-26T08:22:10;102649.69;;;2.33;100.00
71485;BME280;59300;52.074;4.758;2023-01-26T08:25:19;102627.75;;;2.26;100.00
71485;BME280;59300;52.074;4.758;2023-01-26T08:28:21;102635.34;;;2.20;100.00
71485;BME280;59300;52.074;4.758;2023-01-26T08:31:23;102646.38;;;2.13;100.00
71485;BME280;59300;52.074;4.758;2023-01-26T08:34:25;102643.81;;;2.14;100.00
71485;BME280;59300;52.074;4.758;2023-01-26T08:37:27;102647.38;;;2.17;100.00
71485;BME280;59300;52.074;4.758;2023-01-26T08:40:29;102654.13;;;2.11;100.00
71485;BME280;59300;52.074;4.758;2023-01-26T08:43:30;102649.06;;;2.16;100.00
71485;BME280;59300;52.074;4.758;2023-01-26T08:46:35;102644.69;;;2.15;100.00
71485;BME280;59300;52.074;4.758;2023-01-26T08:49:38;102652.59;;;2.17;100.00
71485;BME280;59300;52.074;4.758;2023-01-26T08:52:42;102647.81;;;2.29;100.00
71485;BME280;59300;52.074;4.758;2023-01-26T08:55:53;102653.34;;;2.38;100.00
71485;BME280;59300;52.074;4.758;2023-01-26T09:09:01;102651.00;;;14.23;100.00
71485;BME280;59300;52.074;4.758;2023-01-26T09:13:50;102638.63;;;14.80;100.00
71485;BME280;59300;52.074;4.758;2023-01-26T09:15:43;102650.63;;;15.04;100.00
71485;BME280;59300;52.074;4.758;2023-01-26T09:30:41;102661.34;;;4.10;100.00
71485;BME280;59300;52.074;4.758;2023-01-26T09:31:16;102661.09;;;4.03;100.00
71485;BME280;59300;52.074;4.758;2023-01-26T09:34:58;102673.09;;;3.65;100.00
71485;BME280;59300;52.074;4.758;2023-01-26T09:37:59;102672.38;;;3.42;100.00
71485;BME280;59300;52.074;4.758;2023-01-26T09:41:21;102672.06;;;3.31;100.00
71485;BME280;59300;52.074;4.758;2023-01-26T09:44:34;102666.25;;;3.13;100.00
71485;BME280;59300;52.074;4.758;2023-01-26T09:48:15;102683.56;;;3.11;100.00
71485;BME280;59300;52.074;4.758;2023-01-26T09:51:41;102681.97;;;3.14;100.00
71485;BME280;59300;52.074;4.758;2023-01-26T09:54:53;102673.03;;;3.07;100.00
71485;BME280;59300;52.074;4.758;2023-01-26T09:58:02;102677.47;;;3.10;100.00
71485;BME280;59300;52.074;4.758;2023-01-26T10:01:15;102684.59;;;3.43;100.00
71485;BME280;59300;52.074;4.758;2023-01-26T10:07:27;102684.13;;;3.57;100.00
71485;BME280;59300;52.074;4.758;2023-01-26T10:10:31;102684.03;;;3.53;100.00
71485;BME280;59300;52.074;4.758;2023-01-26T10:13:35;102687.09;;;3.67;100.00
71485;BME280;59300;52.074;4.758;2023-01-26T10:16:36;102684.78;;;3.78;100.00
71485;BME280;59300;52.074;4.758;2023-01-26T10:19:42;102684.03;;;3.82;100.00
71485;BME280;59300;52.074;4.758;2023-01-26T10:22:51;102689.41;;;3.87;100.00
71485;BME280;59300;52.074;4.758;2023-01-26T10:29:12;102682.25;;;4.10;100.00
71485;BME280;59300;52.074;4.758;2023-01-26T10:32:18;102681.88;;;4.28;100.00
71485;BME280;59300;52.074;4.758;2023-01-26T10:35:22;102687.53;;;4.44;100.00
71485;BME280;59300;52.074;4.758;2023-01-26T10:38:37;102693.31;;;4.66;100.00
71485;BME280;59300;52.074;4.758;2023-01-26T10:41:39;102698.91;;;4.80;100.00
71485;BME280;59300;52.074;4.758;2023-01-26T10:44:41;102690.28;;;4.82;100.00
71485;BME280;59300;52.074;4.758;2023-01-26T10:48:12;102684.13;;;4.82;100.00
71485;BME280;59300;52.074;4.758;2023-01-26T10:51:15;102696.66;;;4.94;100.00
71485;BME280;59300;52.074;4.758;2023-01-26T10:54:24;102709.09;;;5.02;100.00
71485;BME280;59300;52.074;4.758;2023-01-26T10:57:28;102697.22;;;5.17;100.00
71485;BME280;59300;52.074;4.758;2023-01-26T11:00:31;102696.72;;;5.32;100.00
71485;BME280;59300;52.074;4.758;2023-01-26T11:03:33;102702.16;;;5.41;100.00
71485;BME280;59300;52.074;4.758;2023-01-26T11:06:35;102684.09;;;5.52;100.00
71485;BME280;59300;52.074;4.758;2023-01-26T11:09:36;102693.75;;;5.54;100.00
71485;BME280;59300;52.074;4.758;2023-01-26T11:12:38;102685.22;;;5.65;100.00
71485;BME280;59300;52.074;4.758;2023-01-26T11:15:41;102685.59;;;5.82;100.00
71485;BME280;59300;52.074;4.758;2023-01-26T11:22:10;102685.19;;;6.02;100.00
71485;BME280;59300;52.074;4.758;2023-01-26T11:41:42;102668.75;;;6.10;100.00
71485;BME280;59300;52.074;4.758;2023-01-26T11:52:02;102669.47;;;6.48;100.00
71485;BME280;59300;52.074;4.758;2023-01-26T11:59:17;102665.22;;;6.54;100.00
71485;BME280;59300;52.074;4.758;2023-01-26T12:02:24;102651.34;;;6.61;100.00
71485;BME280;59300;52.074;4.758;2023-01-26T12:05:38;102661.50;;;6.43;100.00
71485;BME280;59300;52.074;4.758;2023-01-26T12:08:46;102656.38;;;6.49;100.00
71485;BME280;59300;52.074;4.758;2023-01-26T12:15:13;102643.22;;;7.00;100.00
71485;BME280;59300;52.074;4.758;2023-01-26T12:18:40;102642.19;;;6.90;100.00
71485;BME280;59300;52.074;4.758;2023-01-26T12:22:13;102650.50;;;6.64;100.00
71485;BME280;59300;52.074;4.758;2023-01-26T12:25:39;102640.00;;;6.64;100.00
71485;BME280;59300;52.074;4.758;2023-01-26T12:32:07;102634.72;;;6.61;100.00
71485;BME280;59300;52.074;4.758;2023-01-26T12:35:10;102631.88;;;6.99;100.00
71485;BME280;59300;52.074;4.758;2023-01-26T12:38:18;102615.22;;;7.00;100.00
71485;BME280;59300;52.074;4.758;2023-01-26T12:41:57;102615.03;;;6.88;100.00
71485;BME280;59300;52.074;4.758;2023-01-26T12:45:00;102613.16;;;6.79;100.00
71485;BME280;59300;52.074;4.758;2023-01-26T12:48:18;102608.00;;;6.84;100.00
71485;BME280;59300;52.074;4.758;2023-01-26T12:51:28;102612.56;;;6.97;100.00
71485;BME280;59300;52.074;4.758;2023-01-26T12:54:39;102598.44;;;6.89;100.00
71485;BME280;59300;52.074;4.758;2023-01-26T12:57:53;102608.84;;;6.83;100.00
71485;BME280;59300;52.074;4.758;2023-01-26T13:01:04;102607.03;;;6.79;100.00
71485;BME280;59300;52.074;4.758;2023-01-26T13:04:10;102604.56;;;6.89;100.00
71485;BME280;59300;52.074;4.758;2023-01-26T13:07:39;102596.81;;;6.97;100.00
71485;BME280;59300;52.074;4.758;2023-01-26T13:10:50;102593.22;;;6.92;100.00
71485;BME280;59300;52.074;4.758;2023-01-26T13:13:54;102596.72;;;6.91;100.00
71485;BME280;59300;52.074;4.758;2023-01-26T13:16:57;102589.56;;;6.81;100.00
71485;BME280;59300;52.074;4.758;2023-01-26T13:20:42;102593.16;;;6.86;100.00
71485;BME280;59300;52.074;4.758;2023-01-26T13:23:44;102598.16;;;6.70;100.00
71485;BME280;59300;52.074;4.758;2023-01-26T13:26:51;102591.06;;;6.66;100.00
71485;BME280;59300;52.074;4.758;2023-01-26T13:29:53;102593.88;;;6.77;100.00
71485;BME280;59300;52.074;4.758;2023-01-26T13:35:57;102598.59;;;6.98;100.00
71485;BME280;59300;52.074;4.758;2023-01-26T13:39:20;102598.16;;;6.70;100.00
71485;BME280;59300;52.074;4.758;2023-01-26T13:42:30;102598.16;;;6.70;100.00
71485;BME280;59300;52.074;4.758;2023-01-26T13:48:53;102606.66;;;6.57;100.00
71485;BME280;59300;52.074;4.758;2023-01-26T13:51:55;102606.47;;;6.46;100.00
71485;BME280;59300;52.074;4.758;2023-01-26T13:55:00;102609.59;;;6.25;100.00
71485;BME280;59300;52.074;4.758;2023-01-26T13:58:17;102607.78;;;6.21;100.00
71485;BME280;59300;52.074;4.758;2023-01-26T14:01:20;102609.41;;;6.15;100.00
71485;BME280;59300;52.074;4.758;2023-01-26T14:04:26;102610.69;;;5.92;100.00
71485;BME280;59300;52.074;4.758;2023-01-26T14:07:38;102604.56;;;5.91;100.00
71485;BME280;59300;52.074;4.758;2023-01-26T14:10:41;102612.47;;;5.93;100.00
71485;BME280;59300;52.074;4.758;2023-01-26T14:13:46;102603.50;;;5.81;100.00
71485;BME280;59300;52.074;4.758;2023-01-26T14:16:50;102608.56;;;6.15;100.00
71485;BME280;59300;52.074;4.758;2023-01-26T14:19:52;102595.13;;;6.47;100.00
71485;BME280;59300;52.074;4.758;2023-01-26T14:26:18;102591.00;;;6.60;100.00
71485;BME280;59300;52.074;4.758;2023-01-26T14:29:24;102615.03;;;6.34;100.00
71485;BME280;59300;52.074;4.758;2023-01-26T14:32:26;102604.22;;;6.17;100.00
71485;BME280;59300;52.074;4.758;2023-01-26T14:35:28;102600.63;;;6.13;100.00
71485;BME280;59300;52.074;4.758;2023-01-26T14:38:40;102612.72;;;6.05;100.00
71485;BME280;59300;52.074;4.758;2023-01-26T14:41:45;102615.16;;;5.97;100.00
71485;BME280;59300;52.074;4.758;2023-01-26T14:44:48;102610.69;;;5.92;100.00
71485;BME280;59300;52.074;4.758;2023-01-26T14:47:50;102613.16;;;5.84;100.00
71485;BME280;59300;52.074;4.758;2023-01-26T14:50:54;102622.69;;;5.80;100.00
71485;BME280;59300;52.074;4.758;2023-01-26T14:54:02;102621.00;;;5.82;100.00
71485;BME280;59300;52.074;4.758;2023-01-26T14:57:06;102625.50;;;5.90;100.00
71485;BME280;59300;52.074;4.758;2023-01-26T15:00:32;102619.31;;;5.88;100.00
71485;BME280;59300;52.074;4.758;2023-01-26T15:03:36;102629.78;;;5.84;100.00
71485;BME280;59300;52.074;4.758;2023-01-26T15:06:41;102628.91;;;5.86;100.00
71485;BME280;59300;52.074;4.758;2023-01-26T15:09:53;102624.53;;;5.84;100.00
71485;BME280;59300;52.074;4.758;2023-01-26T15:16:15;102630.63;;;5.83;100.00
71485;BME280;59300;52.074;4.758;2023-01-26T15:19:24;102634.88;;;5.78;100.00
71485;BME280;59300;52.074;4.758;2023-01-26T15:22:26;102632.47;;;5.89;100.00
71485;BME280;59300;52.074;4.758;2023-01-26T15:25:30;102642.03;;;5.86;100.00
71485;BME280;59300;52.074;4.758;2023-01-26T15:28:36;102640.25;;;5.84;100.00
71485;BME280;59300;52.074;4.758;2023-01-26T15:31:40;102629.69;;;5.81;100.00
71485;BME280;59300;52.074;4.758;2023-01-26T15:34:42;102630.56;;;5.82;100.00
71485;BME280;59300;52.074;4.758;2023-01-26T15:37:44;102631.28;;;5.73;100.00
71485;BME280;59300;52.074;4.758;2023-01-26T15:40:45;102619.03;;;5.72;100.00
71485;BME280;59300;52.074;4.758;2023-01-26T15:43:47;102639.16;;;5.75;100.00
71485;BME280;59300;52.074;4.758;2023-01-26T15:46:48;102642.53;;;5.69;100.00
71485;BME280;59300;52.074;4.758;2023-01-26T15:49:50;102646.00;;;5.68;100.00
71485;BME280;59300;52.074;4.758;2023-01-26T15:52:52;102643.38;;;5.66;100.00
71485;BME280;59300;52.074;4.758;2023-01-26T15:55:56;102654.47;;;5.56;100.00
71485;BME280;59300;52.074;4.758;2023-01-26T15:59:07;102665.69;;;5.50;100.00
71485;BME280;59300;52.074;4.758;2023-01-26T16:02:14;102651.34;;;5.33;100.00
71485;BME280;59300;52.074;4.758;2023-01-26T16:05:19;102653.69;;;5.20;100.00
71485;BME280;59300;52.074;4.758;2023-01-26T16:08:21;102660.53;;;5.15;100.00
71485;BME280;59300;52.074;4.758;2023-01-26T16:11:26;102656.16;;;5.14;100.00
71485;BME280;59300;52.074;4.758;2023-01-26T16:14:28;102654.47;;;5.18;100.00
71485;BME280;59300;52.074;4.758;2023-01-26T16:17:30;102657.28;;;5.26;100.00
71485;BME280;59300;52.074;4.758;2023-01-26T16:20:33;102658.22;;;5.28;100.00
71485;BME280;59300;52.074;4.758;2023-01-26T16:23:36;102652.84;;;5.21;100.00
71485;BME280;59300;52.074;4.758;2023-01-26T16:26:37;102654.53;;;5.19;100.00
71485;BME280;59300;52.074;4.758;2023-01-26T16:29:38;102653.69;;;5.20;100.00
71485;BME280;59300;52.074;4.758;2023-01-26T16:32:58;102658.75;;;5.13;100.00
71485;BME280;59300;52.074;4.758;2023-01-26T16:35:59;102654.38;;;5.13;100.00
71485;BME280;59300;52.074;4.758;2023-01-26T16:39:01;102662.41;;;5.21;100.00
71485;BME280;59300;52.074;4.758;2023-01-26T16:42:02;102659.78;;;5.21;100.00
71485;BME280;59300;52.074;4.758;2023-01-26T16:45:04;102663.16;;;5.15;100.00
71485;BME280;59300;52.074;4.758;2023-01-26T16:48:08;102654.63;;;5.22;100.00
71485;BME280;59300;52.074;4.758;2023-01-26T16:51:14;102654.75;;;5.29;100.00
71485;BME280;59300;52.074;4.758;2023-01-26T16:54:16;102662.41;;;5.21;100.00
71485;BME280;59300;52.074;4.758;2023-01-26T16:57:18;102653.34;;;5.06;100.00
71485;BME280;59300;52.074;4.758;2023-01-26T17:00:19;102653.25;;;5.02;100.00
71485;BME280;59300;52.074;4.758;2023-01-26T17:03:21;102650.53;;;4.99;100.00
71485;BME280;59300;52.074;4.758;2023-01-26T17:06:22;102640.38;;;5.11;100.00
71485;BME280;59300;52.074;4.758;2023-01-26T17:09:24;102643.88;;;5.12;100.00
71485;BME280;59300;52.074;4.758;2023-01-26T17:12:25;102647.38;;;5.12;100.00
71485;BME280;59300;52.074;4.758;2023-01-26T17:15:27;102649.25;;;5.18;100.00
71485;BME280;59300;52.074;4.758;2023-01-26T17:18:31;102650.84;;;5.11;100.00
71485;BME280;59300;52.074;4.758;2023-01-26T17:21:32;102651.72;;;5.10;100.00
71485;BME280;59300;52.074;4.758;2023-01-26T17:24:34;102650.91;;;5.14;100.00
71485;BME280;59300;52.074;4.758;2023-01-26T17:27:35;102647.38;;;5.12;100.00